createdAt,value
2019-01-30T00:01:20.594Z,119.90
2019-01-30T00:03:48.430Z,133.77
2019-01-30T00:06:16.094Z,132.87
2019-01-30T00:08:43.635Z,132.33
2019-01-30T00:11:11.303Z,131.63
2019-01-30T00:13:39.085Z,127.93
2019-01-30T00:16:06.731Z,137.83
2019-01-30T00:18:34.417Z,150.23
2019-01-30T00:21:02.082Z,145.37
2019-01-30T00:23:29.752Z,151.97
2019-01-30T00:25:57.607Z,158.93
2019-01-30T00:28:25.251Z,167.40
2019-01-30T00:30:52.848Z,167.90
2019-01-30T00:33:20.610Z,173.60
2019-01-30T00:35:48.461Z,179.37
2019-01-30T00:38:16.333Z,190.17
2019-01-30T00:40:44.105Z,206.40
2019-01-30T00:43:11.744Z,225.53
2019-01-30T00:45:39.528Z,237.20
2019-01-30T00:48:07.295Z,243.00
2019-01-30T00:50:34.848Z,218.90
2019-01-30T00:53:02.502Z,197.23
2019-01-30T00:55:30.163Z,213.93
2019-01-30T00:57:57.843Z,202.00
2019-01-30T01:00:26.733Z,216.00
2019-01-30T01:02:54.283Z,220.63
2019-01-30T01:05:22.066Z,222.70
2019-01-30T01:07:50.644Z,222.00
2019-01-30T01:10:21.591Z,223.30
2019-01-30T01:12:49.358Z,211.23
2019-01-30T01:15:16.993Z,202.47
2019-01-30T01:17:44.785Z,190.73
2019-01-30T01:20:15.731Z,201.37
2019-01-30T01:22:43.894Z,208.77
2019-01-30T01:25:12.810Z,194.40
2019-01-30T01:27:40.372Z,183.03
2019-01-30T01:30:09.657Z,184.83
2019-01-30T01:32:37.337Z,175.03
2019-01-30T01:35:05.534Z,178.00
2019-01-30T01:37:33.265Z,173.50
2019-01-30T01:40:01.129Z,168.90
2019-01-30T01:42:28.775Z,170.93
2019-01-30T01:44:56.340Z,178.23
2019-01-30T01:47:24.030Z,173.87
2019-01-30T01:49:51.687Z,157.43
2019-01-30T01:52:19.324Z,171.67
2019-01-30T01:54:47.213Z,168.67
2019-01-30T01:57:14.829Z,163.33
2019-01-30T01:59:42.538Z,168.17
2019-01-30T02:02:10.509Z,170.20
2019-01-30T02:04:38.380Z,179.20
2019-01-30T02:07:06.041Z,177.73
2019-01-30T02:09:33.687Z,166.77
2019-01-30T02:12:01.375Z,160.10
2019-01-30T02:14:29.029Z,156.73
2019-01-30T02:16:56.692Z,161.53
2019-01-30T02:19:24.456Z,165.20
2019-01-30T02:21:52.120Z,157.27
2019-01-30T02:24:19.885Z,159.30
2019-01-30T02:26:47.651Z,156.13
2019-01-30T02:29:15.332Z,154.67
2019-01-30T02:31:42.869Z,158.83
2019-01-30T02:34:10.642Z,155.33
2019-01-30T02:36:39.961Z,166.53
2019-01-30T02:39:07.668Z,162.93
2019-01-30T02:41:35.420Z,142.87
2019-01-30T02:44:03.241Z,146.27
2019-01-30T02:46:30.892Z,157.83
2019-01-30T02:48:58.577Z,158.07
2019-01-30T02:51:26.345Z,152.07
2019-01-30T02:53:54.014Z,161.13
2019-01-30T02:56:21.768Z,153.73
2019-01-30T02:58:49.488Z,136.80
2019-01-30T03:01:17.300Z,124.00
2019-01-30T03:03:44.929Z,122.27
2019-01-30T03:06:12.634Z,119.97
2019-01-30T03:08:40.306Z,112.57
2019-01-30T03:11:08.053Z,121.33
2019-01-30T03:13:35.631Z,108.17
2019-01-30T03:16:03.377Z,123.70
2019-01-30T03:18:31.038Z,127.50
2019-01-30T03:20:58.719Z,130.73
2019-01-30T03:23:26.255Z,115.83
2019-01-30T03:25:53.852Z,115.90
2019-01-30T03:28:21.427Z,114.03
2019-01-30T03:30:49.261Z,100.60
2019-01-30T03:33:17.028Z,109.90
2019-01-30T03:35:44.672Z,98.03
2019-01-30T03:38:12.371Z,97.77
2019-01-30T03:40:40.019Z,94.73
2019-01-30T03:43:07.885Z,96.63
2019-01-30T03:45:35.451Z,90.70
2019-01-30T03:48:03.212Z,89.20
2019-01-30T03:50:30.965Z,94.73
2019-01-30T03:52:58.520Z,82.37
2019-01-30T03:55:26.196Z,80.03
2019-01-30T03:57:53.969Z,80.57
2019-01-30T04:00:27.687Z,89.23
2019-01-30T04:02:55.222Z,88.27
2019-01-30T04:05:23.103Z,74.37
2019-01-30T04:07:50.869Z,72.50
2019-01-30T04:10:19.350Z,75.10
2019-01-30T04:12:47.112Z,82.00
2019-01-30T04:15:14.776Z,74.43
2019-01-30T04:17:42.545Z,77.13
2019-01-30T04:20:11.642Z,78.40
2019-01-30T04:22:39.305Z,71.30
2019-01-30T04:25:07.794Z,70.13
2019-01-30T04:27:35.460Z,69.30
2019-01-30T04:30:03.110Z,76.47
2019-01-30T04:32:30.782Z,71.33
2019-01-30T04:34:58.541Z,94.83
2019-01-30T04:37:26.420Z,81.83
2019-01-30T04:39:54.076Z,84.00
2019-01-30T04:42:21.843Z,78.53
2019-01-30T04:44:49.487Z,78.70
2019-01-30T04:47:17.164Z,82.47
2019-01-30T04:49:44.828Z,104.13
2019-01-30T04:52:12.375Z,96.33
2019-01-30T04:54:40.052Z,81.77
2019-01-30T04:57:07.818Z,73.30
2019-01-30T04:59:35.794Z,81.73
2019-01-30T05:02:03.561Z,74.33
2019-01-30T05:04:31.321Z,63.00
2019-01-30T05:06:59.091Z,96.73
2019-01-30T05:09:26.647Z,124.30
2019-01-30T05:11:54.295Z,126.07
2019-01-30T05:14:21.959Z,134.20
2019-01-30T05:16:49.657Z,143.63
2019-01-30T05:19:17.511Z,166.40
2019-01-30T05:21:45.088Z,146.37
2019-01-30T05:24:12.730Z,139.17
2019-01-30T05:26:40.501Z,126.17
2019-01-30T05:29:08.365Z,116.27
2019-01-30T05:31:36.036Z,107.30
2019-01-30T05:34:03.691Z,103.67
2019-01-30T05:36:31.373Z,118.63
2019-01-30T05:38:59.054Z,130.50
2019-01-30T05:41:26.892Z,160.73
2019-01-30T05:43:54.551Z,129.33
2019-01-30T05:46:22.308Z,136.57
2019-01-30T05:48:49.977Z,122.63
2019-01-30T05:51:17.752Z,128.77
2019-01-30T05:53:45.415Z,144.30
2019-01-30T05:56:13.186Z,141.60
2019-01-30T05:58:40.941Z,126.30
2019-01-30T06:01:08.605Z,112.87
2019-01-30T06:03:36.460Z,129.47
2019-01-30T06:06:04.137Z,106.43
2019-01-30T06:08:32.009Z,115.10
2019-01-30T06:10:59.668Z,92.93
2019-01-30T06:13:27.315Z,93.43
2019-01-30T06:15:54.983Z,80.50
2019-01-30T06:18:24.709Z,81.13
2019-01-30T06:20:52.474Z,84.67
2019-01-30T06:23:20.240Z,83.67
2019-01-30T06:25:47.882Z,100.63
2019-01-30T06:28:15.553Z,106.50
2019-01-30T06:30:43.219Z,90.57
2019-01-30T06:33:10.891Z,97.40
2019-01-30T06:35:38.562Z,104.27
2019-01-30T06:38:06.336Z,74.90
2019-01-30T06:40:33.984Z,63.20
2019-01-30T06:43:02.841Z,70.83
2019-01-30T06:45:30.743Z,63.77
2019-01-30T06:47:58.415Z,69.27
2019-01-30T06:50:26.417Z,67.00
2019-01-30T06:52:54.049Z,42.33
2019-01-30T06:55:21.807Z,87.23
2019-01-30T06:57:49.474Z,101.10
2019-01-30T07:00:21.439Z,69.03
2019-01-30T07:02:48.981Z,57.80
2019-01-30T07:05:16.659Z,65.63
2019-01-30T07:07:44.431Z,58.30
2019-01-30T07:10:13.948Z,53.60
2019-01-30T07:12:41.583Z,49.37
2019-01-30T07:15:09.673Z,59.57
2019-01-30T07:17:37.348Z,67.47
2019-01-30T07:20:07.139Z,66.15
2019-01-30T07:22:34.915Z,58.77
2019-01-30T07:25:02.558Z,54.80
2019-01-30T07:27:30.449Z,56.53
2019-01-30T07:29:58.108Z,53.87
2019-01-30T07:32:25.680Z,47.40
2019-01-30T07:34:53.317Z,47.93
2019-01-30T07:37:21.085Z,46.00
2019-01-30T07:39:48.773Z,46.00
2019-01-30T07:42:16.407Z,56.30
2019-01-30T07:44:50.437Z,54.00
2019-01-30T07:47:13.397Z,50.23
2019-01-30T07:49:41.049Z,63.13
2019-01-30T07:52:08.829Z,51.00
2019-01-30T07:54:36.467Z,70.47
2019-01-30T07:57:04.144Z,65.23
2019-01-30T07:59:32.155Z,63.77
2019-01-30T08:01:59.993Z,61.63
2019-01-30T08:04:27.755Z,66.00
2019-01-30T08:06:55.411Z,66.97
2019-01-30T08:09:23.179Z,53.17
2019-01-30T08:11:50.859Z,60.93
2019-01-30T08:14:18.612Z,54.93
2019-01-30T08:16:48.089Z,60.40
2019-01-30T08:19:15.986Z,71.90
2019-01-30T08:21:43.631Z,69.50
2019-01-30T08:24:11.809Z,48.83
2019-01-30T08:26:40.178Z,77.57
2019-01-30T08:29:08.399Z,82.70
2019-01-30T08:31:36.270Z,80.67
2019-01-30T08:34:03.922Z,98.90
2019-01-30T08:36:31.509Z,71.17
2019-01-30T08:38:59.223Z,80.27
2019-01-30T08:41:26.918Z,75.87
2019-01-30T08:43:54.672Z,96.27
2019-01-30T08:46:22.739Z,103.20
2019-01-30T08:48:50.511Z,72.63
2019-01-30T08:51:18.159Z,158.23
2019-01-30T08:53:45.846Z,276.10
2019-01-30T08:56:13.603Z,132.50
2019-01-30T08:58:41.266Z,95.50
2019-01-30T09:01:09.026Z,82.37
2019-01-30T09:03:36.802Z,66.23
2019-01-30T09:06:05.485Z,58.50
2019-01-30T09:08:33.353Z,55.33
2019-01-30T09:11:01.424Z,50.97
2019-01-30T09:13:29.198Z,49.10
2019-01-30T09:15:56.853Z,49.27
2019-01-30T09:18:24.498Z,45.40
2019-01-30T09:20:52.189Z,50.13
2019-01-30T09:23:19.950Z,52.70
2019-01-30T09:25:47.817Z,49.67
2019-01-30T09:28:15.473Z,52.80
2019-01-30T09:30:43.016Z,48.33
2019-01-30T09:33:10.669Z,52.93
2019-01-30T09:35:38.264Z,50.50
2019-01-30T09:38:06.094Z,50.67
2019-01-30T09:40:33.897Z,44.23
2019-01-30T09:43:01.570Z,48.27
2019-01-30T09:45:29.329Z,48.93
2019-01-30T09:47:57.201Z,51.50
2019-01-30T09:50:25.253Z,46.63
2019-01-30T09:52:53.448Z,53.40
2019-01-30T09:55:21.104Z,63.53
2019-01-30T09:57:48.874Z,51.87
2019-01-30T10:00:20.630Z,53.27
2019-01-30T10:02:48.398Z,63.33
2019-01-30T10:05:16.044Z,48.67
2019-01-30T10:07:43.707Z,44.27
2019-01-30T10:10:18.867Z,47.73
2019-01-30T10:12:46.633Z,46.93
2019-01-30T10:15:15.725Z,50.30
2019-01-30T10:17:43.389Z,49.33
2019-01-30T10:20:12.588Z,46.93
2019-01-30T10:22:40.186Z,50.13
2019-01-30T10:25:09.031Z,60.57
2019-01-30T10:27:36.812Z,53.83
2019-01-30T10:30:09.999Z,44.40
2019-01-30T10:32:37.771Z,52.77
2019-01-30T10:35:06.353Z,44.13
2019-01-30T10:37:34.015Z,49.87
2019-01-30T10:40:01.696Z,62.83
2019-01-30T10:42:29.327Z,46.70
2019-01-30T10:44:57.003Z,49.53
2019-01-30T10:47:24.879Z,43.90
2019-01-30T10:49:52.524Z,65.57
2019-01-30T10:52:20.321Z,44.83
2019-01-30T10:54:47.856Z,44.97
2019-01-30T10:57:15.837Z,46.43
2019-01-30T10:59:43.446Z,44.97
2019-01-30T11:02:11.281Z,54.30
2019-01-30T11:04:39.138Z,47.63
2019-01-30T11:07:06.899Z,50.77
2019-01-30T11:09:34.531Z,70.97
2019-01-30T11:12:02.211Z,50.53
2019-01-30T11:14:29.889Z,66.17
2019-01-30T11:16:57.639Z,43.13
2019-01-30T11:19:25.624Z,69.00
2019-01-30T11:21:53.396Z,47.20
2019-01-30T11:24:21.162Z,52.83
2019-01-30T11:26:48.783Z,49.90
2019-01-30T11:29:16.464Z,49.70
2019-01-30T11:31:44.165Z,46.47
2019-01-30T11:34:11.913Z,53.07
2019-01-30T11:36:39.684Z,54.77
2019-01-30T11:39:07.340Z,45.40
2019-01-30T11:41:34.991Z,46.73
2019-01-30T11:44:02.674Z,49.97
2019-01-30T11:46:30.219Z,48.37
2019-01-30T11:48:58.002Z,61.63
2019-01-30T11:51:25.866Z,62.57
2019-01-30T11:53:53.411Z,57.87
2019-01-30T11:56:21.197Z,72.57
2019-01-30T11:58:48.851Z,75.40
2019-01-30T12:01:16.621Z,77.50
2019-01-30T12:03:44.494Z,82.10
2019-01-30T12:06:12.267Z,78.33
2019-01-30T12:08:40.023Z,76.60
2019-01-30T12:11:07.689Z,81.90
2019-01-30T12:13:35.554Z,79.67
2019-01-30T12:16:03.229Z,88.17
2019-01-30T12:18:30.881Z,80.97
2019-01-30T12:20:58.441Z,77.17
2019-01-30T12:23:26.105Z,71.83
2019-01-30T12:25:53.870Z,87.37
2019-01-30T12:28:21.505Z,75.30
2019-01-30T12:30:49.102Z,76.57
2019-01-30T12:33:17.071Z,142.70
2019-01-30T12:35:44.836Z,161.30
2019-01-30T12:38:12.603Z,93.07
2019-01-30T12:40:40.278Z,84.03
2019-01-30T12:43:07.920Z,76.63
2019-01-30T12:45:37.238Z,81.07
2019-01-30T12:48:05.777Z,84.92
2019-01-30T12:50:33.590Z,82.20
2019-01-30T12:53:01.453Z,82.33
2019-01-30T12:55:29.742Z,81.43
2019-01-30T12:57:57.703Z,98.00
2019-01-30T13:00:26.896Z,79.33
2019-01-30T13:02:54.559Z,88.00
2019-01-30T13:05:23.148Z,82.83
2019-01-30T13:07:51.066Z,82.57
2019-01-30T13:10:18.678Z,81.67
2019-01-30T13:12:46.543Z,78.57
2019-01-30T13:15:15.541Z,76.30
2019-01-30T13:17:43.095Z,64.63
2019-01-30T13:20:12.541Z,69.43
2019-01-30T13:22:40.682Z,74.20
2019-01-30T13:25:08.812Z,88.50
2019-01-30T13:27:39.699Z,88.47
2019-01-30T13:30:17.999Z,88.97
2019-01-30T13:32:45.669Z,89.77
2019-01-30T13:35:13.336Z,76.77
2019-01-30T13:37:41.113Z,73.00
2019-01-30T13:40:10.299Z,71.83
2019-01-30T13:42:37.879Z,64.67
2019-01-30T13:45:07.156Z,67.97
2019-01-30T13:47:34.926Z,74.60
2019-01-30T13:50:02.701Z,82.93
2019-01-30T13:52:30.355Z,80.20
2019-01-30T13:54:57.911Z,74.40
2019-01-30T13:57:25.690Z,76.03
2019-01-30T13:59:53.455Z,78.77
2019-01-30T14:02:21.078Z,85.20
2019-01-30T14:04:59.110Z,104.83
2019-01-30T14:07:17.872Z,104.13
2019-01-30T14:09:45.681Z,132.00
2019-01-30T14:12:13.337Z,130.27
2019-01-30T14:14:41.068Z,124.50
2019-01-30T14:17:08.671Z,126.73
2019-01-30T14:19:36.432Z,167.77
2019-01-30T14:22:03.966Z,143.27
2019-01-30T14:24:31.728Z,157.73
2019-01-30T14:26:59.388Z,197.30
2019-01-30T14:29:27.060Z,235.17
2019-01-30T14:31:54.956Z,184.97
2019-01-30T14:34:22.522Z,148.63
2019-01-30T14:36:50.475Z,177.57
2019-01-30T14:39:18.226Z,157.87
2019-01-30T14:41:45.892Z,148.37
2019-01-30T14:44:13.713Z,129.97
2019-01-30T14:46:41.515Z,140.53
2019-01-30T14:49:09.166Z,155.67
2019-01-30T14:51:36.948Z,165.73
2019-01-30T14:54:05.317Z,146.80
2019-01-30T14:56:32.877Z,170.70
2019-01-30T14:59:00.470Z,164.73
2019-01-30T15:01:28.095Z,170.17
2019-01-30T15:03:55.881Z,148.63
2019-01-30T15:06:23.541Z,195.23
2019-01-30T15:08:51.409Z,222.20
2019-01-30T15:11:19.089Z,246.27
2019-01-30T15:13:46.679Z,228.40
2019-01-30T15:16:14.288Z,275.43
2019-01-30T15:18:41.958Z,242.70
2019-01-30T15:21:09.649Z,208.90
2019-01-30T15:23:37.271Z,210.90
2019-01-30T15:26:05.374Z,158.37
2019-01-30T15:28:33.007Z,147.63
2019-01-30T15:31:00.683Z,129.63
2019-01-30T15:33:28.353Z,105.40
2019-01-30T15:35:56.028Z,115.57
2019-01-30T15:38:23.660Z,123.90
2019-01-30T15:40:51.442Z,107.63
2019-01-30T15:43:19.211Z,98.30
2019-01-30T15:45:46.881Z,110.30
2019-01-30T15:48:14.456Z,122.97
2019-01-30T15:50:42.420Z,127.40
2019-01-30T15:53:11.499Z,162.47
2019-01-30T15:55:39.153Z,182.30
2019-01-30T15:58:08.272Z,190.20
2019-01-30T16:00:40.637Z,182.43
2019-01-30T16:03:08.288Z,193.93
2019-01-30T16:05:44.568Z,165.70
2019-01-30T16:08:05.427Z,203.27
2019-01-30T16:10:33.128Z,124.50
2019-01-30T16:13:00.826Z,158.33
2019-01-30T16:15:29.924Z,136.57
2019-01-30T16:17:57.568Z,149.90
2019-01-30T16:20:25.119Z,115.47
2019-01-30T16:22:52.783Z,113.37
2019-01-30T16:25:20.564Z,139.10
2019-01-30T16:27:48.415Z,145.60
2019-01-30T16:30:17.414Z,148.20
2019-01-30T16:32:45.075Z,149.90
2019-01-30T16:35:17.349Z,151.30
2019-01-30T16:37:44.891Z,163.13
2019-01-30T16:40:13.925Z,180.30
2019-01-30T16:42:41.573Z,235.43
2019-01-30T16:45:10.870Z,204.90
2019-01-30T16:47:38.533Z,223.30
2019-01-30T16:50:07.825Z,192.87
2019-01-30T16:52:35.524Z,224.50
2019-01-30T16:55:03.260Z,222.13
2019-01-30T16:57:31.115Z,204.37
2019-01-30T16:59:58.912Z,173.13
2019-01-30T17:02:26.664Z,183.67
2019-01-30T17:04:54.306Z,172.80
2019-01-30T17:07:22.096Z,168.47
2019-01-30T17:09:49.753Z,169.93
2019-01-30T17:12:17.523Z,151.67
2019-01-30T17:14:45.119Z,149.63
2019-01-30T17:17:12.861Z,145.03
2019-01-30T17:19:40.499Z,139.53
2019-01-30T17:22:08.274Z,132.90
2019-01-30T17:24:36.042Z,144.03
2019-01-30T17:27:04.053Z,138.60
2019-01-30T17:29:31.675Z,148.73
2019-01-30T17:31:59.223Z,141.00
2019-01-30T17:34:26.869Z,140.53
2019-01-30T17:36:54.565Z,132.03
2019-01-30T17:39:22.220Z,137.23
2019-01-30T17:41:49.888Z,141.40
2019-01-30T17:44:17.469Z,142.47
2019-01-30T17:46:45.116Z,140.57
2019-01-30T17:49:12.782Z,140.50
2019-01-30T17:51:42.904Z,142.07
2019-01-30T17:54:09.858Z,139.37
2019-01-30T17:56:37.623Z,136.40
2019-01-30T17:59:05.275Z,115.43
2019-01-30T18:01:33.045Z,126.50
2019-01-30T18:04:00.744Z,111.83
2019-01-30T18:06:30.111Z,126.70
2019-01-30T18:08:58.387Z,125.93
2019-01-30T18:11:26.052Z,117.20
2019-01-30T18:13:53.712Z,109.27
2019-01-30T18:16:21.376Z,116.83
2019-01-30T18:18:49.044Z,117.10
2019-01-30T18:21:16.692Z,115.43
2019-01-30T18:23:44.371Z,116.53
2019-01-30T18:26:12.072Z,139.60
2019-01-30T18:28:39.792Z,130.37
2019-01-30T18:31:07.447Z,131.03
2019-01-30T18:33:35.140Z,139.63
2019-01-30T18:36:02.772Z,138.57
2019-01-30T18:38:30.358Z,138.50
2019-01-30T18:40:58.221Z,150.63
2019-01-30T18:43:25.767Z,154.43
2019-01-30T18:45:53.543Z,136.13
2019-01-30T18:48:21.224Z,134.53
2019-01-30T18:50:48.823Z,131.60
2019-01-30T18:53:16.375Z,130.83
2019-01-30T18:55:43.992Z,130.53
2019-01-30T18:58:11.673Z,132.83
2019-01-30T19:00:40.143Z,146.23
2019-01-30T19:03:09.132Z,163.07
2019-01-30T19:05:36.796Z,172.43
2019-01-30T19:08:05.488Z,168.45
2019-01-30T19:10:33.356Z,164.83
2019-01-30T19:13:01.002Z,165.40
2019-01-30T19:15:29.400Z,165.23
2019-01-30T19:17:57.165Z,170.27
2019-01-30T19:20:26.399Z,162.57
2019-01-30T19:22:54.041Z,159.53
2019-01-30T19:25:21.688Z,164.63
2019-01-30T19:27:49.458Z,163.00
2019-01-30T19:30:18.654Z,152.07
2019-01-30T19:32:46.419Z,174.10
2019-01-30T19:35:14.068Z,165.60
2019-01-30T19:37:41.749Z,172.60
2019-01-30T19:40:10.948Z,165.20
2019-01-30T19:42:38.649Z,175.80
2019-01-30T19:45:08.016Z,180.90
2019-01-30T19:47:35.784Z,172.37
2019-01-30T19:50:03.954Z,160.70
2019-01-30T19:52:31.726Z,185.20
2019-01-30T19:54:59.391Z,194.87
2019-01-30T19:57:27.049Z,218.13
2019-01-30T19:59:54.818Z,222.47
2019-01-30T20:02:22.578Z,221.90
2019-01-30T20:04:50.452Z,212.37
2019-01-30T20:07:18.218Z,200.13
2019-01-30T20:09:45.881Z,201.40
2019-01-30T20:12:13.643Z,193.37
2019-01-30T20:14:41.310Z,185.37
2019-01-30T20:17:09.072Z,193.47
2019-01-30T20:19:36.843Z,216.47
2019-01-30T20:22:05.307Z,212.78
2019-01-30T20:24:32.993Z,208.57
2019-01-30T20:27:00.855Z,207.57
2019-01-30T20:29:28.498Z,179.77
2019-01-30T20:31:56.288Z,183.10
2019-01-30T20:34:24.053Z,181.83
2019-01-30T20:36:51.712Z,174.67
2019-01-30T20:39:19.393Z,168.00
2019-01-30T20:41:47.145Z,195.87
2019-01-30T20:44:14.801Z,182.03
2019-01-30T20:46:42.569Z,217.67
2019-01-30T20:49:10.217Z,208.50
2019-01-30T20:51:37.885Z,226.57
2019-01-30T20:54:05.536Z,218.50
2019-01-30T20:56:33.327Z,211.43
2019-01-30T20:59:00.977Z,201.87
2019-01-30T21:01:28.652Z,228.33
2019-01-30T21:03:56.200Z,209.77
2019-01-30T21:06:23.985Z,223.17
2019-01-30T21:08:51.766Z,240.83
2019-01-30T21:11:19.421Z,231.77
2019-01-30T21:13:47.180Z,224.83
2019-01-30T21:16:15.050Z,220.33
2019-01-30T21:18:42.917Z,217.17
2019-01-30T21:21:10.677Z,240.90
2019-01-30T21:23:38.648Z,238.93
2019-01-30T21:26:06.433Z,306.60
2019-01-30T21:28:34.077Z,338.87
2019-01-30T21:31:01.657Z,380.77
2019-01-30T21:33:29.306Z,356.47
2019-01-30T21:35:56.953Z,382.27
2019-01-30T21:38:24.632Z,368.97
2019-01-30T21:40:52.399Z,390.57
2019-01-30T21:43:20.009Z,373.80
2019-01-30T21:45:47.737Z,332.97
2019-01-30T21:48:15.327Z,284.00
2019-01-30T21:50:43.057Z,278.63
2019-01-30T21:53:10.700Z,270.57
2019-01-30T21:55:38.363Z,253.93
2019-01-30T21:58:06.040Z,251.13
2019-01-30T22:00:33.663Z,242.40
2019-01-30T22:03:01.261Z,217.73
2019-01-30T22:05:29.040Z,218.30
2019-01-30T22:08:01.073Z,234.63
2019-01-30T22:10:26.612Z,244.07
2019-01-30T22:12:54.155Z,243.93
2019-01-30T22:15:21.822Z,251.43
2019-01-30T22:17:49.498Z,254.67
2019-01-30T22:20:18.410Z,251.70
2019-01-30T22:22:46.281Z,235.93
2019-01-30T22:25:20.434Z,243.57
2019-01-30T22:27:44.554Z,251.57
2019-01-30T22:30:16.631Z,278.53
2019-01-30T22:32:44.694Z,274.23
2019-01-30T22:35:12.352Z,251.30
2019-01-30T22:37:40.016Z,252.30
2019-01-30T22:40:09.113Z,254.90
2019-01-30T22:42:36.784Z,250.87
2019-01-30T22:45:06.088Z,256.30
2019-01-30T22:47:33.757Z,260.00
2019-01-30T22:50:01.518Z,253.90
2019-01-30T22:52:29.186Z,250.37
2019-01-30T22:54:57.267Z,248.33
2019-01-30T22:57:24.919Z,238.77
2019-01-30T22:59:52.581Z,237.77
2019-01-30T23:02:20.342Z,268.67
2019-01-30T23:04:52.516Z,267.37
2019-01-30T23:07:22.075Z,271.40
2019-01-30T23:10:00.541Z,286.07
2019-01-30T23:12:29.841Z,266.80
2019-01-30T23:15:08.221Z,286.60
2019-01-30T23:17:40.103Z,268.67
2019-01-30T23:20:09.333Z,249.13
2019-01-30T23:22:55.928Z,262.50
2019-01-30T23:25:37.314Z,278.27
2019-01-30T23:28:07.128Z,289.25
2019-01-30T23:30:38.988Z,270.77
2019-01-30T23:33:11.358Z,346.80
2019-01-30T23:35:43.636Z,324.97
2019-01-30T23:38:15.717Z,284.97
2019-01-30T23:40:44.901Z,286.13
2019-01-30T23:43:17.171Z,272.77
2019-01-30T23:45:59.172Z,278.77
2019-01-30T23:48:40.540Z,270.23
2019-01-30T23:51:22.050Z,249.73
2019-01-30T23:53:54.002Z,196.83
2019-01-30T23:56:23.336Z,201.93
2019-01-30T23:58:52.716Z,198.63
